sensor_id;sensor_type;location;lat;lon;timestamp;temperature;humidity
45383;DHT22;42455;51.660;5.824;2023-02-18T00:03:57;13.7;96.5
45383;DHT22;42455;51.660;5.824;2023-02-18T00:09:04;13.6;96.5
45383;DHT22;42455;51.660;5.824;2023-02-18T00:14:11;13.7;96.5
45383;DHT22;42455;51.660;5.824;2023-02-18T00:19:17;13.6;96.5
45383;DHT22;42455;51.660;5.824;2023-02-18T00:24:21;13.6;96.5
45383;DHT22;42455;51.660;5.824;2023-02-18T00:29:28;13.6;96.5
45383;DHT22;42455;51.660;5.824;2023-02-18T00:34:34;13.7;96.5
45383;DHT22;42455;51.660;5.824;2023-02-18T00:39:40;13.6;96.5
45383;DHT22;42455;51.660;5.824;2023-02-18T00:44:45;13.7;96.5
45383;DHT22;42455;51.660;5.824;2023-02-18T00:49:51;13.7;96.5
45383;DHT22;42455;51.660;5.824;2023-02-18T00:54:58;13.7;96.5
45383;DHT22;42455;51.660;5.824;2023-02-18T01:00:05;13.7;96.5
45383;DHT22;42455;51.660;5.824;2023-02-18T01:05:10;13.7;97.0
45383;DHT22;42455;51.660;5.824;2023-02-18T01:10:16;13.7;97.0
45383;DHT22;42455;51.660;5.824;2023-02-18T01:15:22;13.7;97.0
45383;DHT22;42455;51.660;5.824;2023-02-18T01:20:28;13.7;97.0
45383;DHT22;42455;51.660;5.824;2023-02-18T01:25:34;13.7;97.0
45383;DHT22;42455;51.660;5.824;2023-02-18T01:30:40;13.7;97.0
45383;DHT22;42455;51.660;5.824;2023-02-18T01:35:46;13.7;97.0
45383;DHT22;42455;51.660;5.824;2023-02-18T01:40:52;13.7;97.0
45383;DHT22;42455;51.660;5.824;2023-02-18T01:46:14;13.7;97.0
45383;DHT22;42455;51.660;5.824;2023-02-18T01:51:10;13.7;97.0
45383;DHT22;42455;51.660;5.824;2023-02-18T01:56:13;13.7;97.0
45383;DHT22;42455;51.660;5.824;2023-02-18T02:01:16;13.7;97.0
45383;DHT22;42455;51.660;5.824;2023-02-18T02:06:23;13.6;97.5
45383;DHT22;42455;51.660;5.824;2023-02-18T02:12:07;13.6;97.5
45383;DHT22;42455;51.660;5.824;2023-02-18T02:17:13;13.6;97.5
45383;DHT22;42455;51.660;5.824;2023-02-18T02:25:18;13.5;97.5
45383;DHT22;42455;51.660;5.824;2023-02-18T02:32:35;13.5;97.5
45383;DHT22;42455;51.660;5.824;2023-02-18T02:37:26;13.5;98.0
45383;DHT22;42455;51.660;5.824;2023-02-18T02:42:54;13.5;98.0
45383;DHT22;42455;51.660;5.824;2023-02-18T02:47:52;13.4;98.0
45383;DHT22;42455;51.660;5.824;2023-02-18T02:52:02;13.4;98.0
45383;DHT22;42455;51.660;5.824;2023-02-18T02:53:46;13.4;98.0
45383;DHT22;42455;51.660;5.824;2023-02-18T02:57:53;13.4;98.5
45383;DHT22;42455;51.660;5.824;2023-02-18T03:03:38;13.3;98.5
45383;DHT22;42455;51.660;5.824;2023-02-18T03:09:46;13.3;98.5
45383;DHT22;42455;51.660;5.824;2023-02-18T03:12:53;13.3;98.5
45383;DHT22;42455;51.660;5.824;2023-02-18T03:17:57;13.2;98.5
45383;DHT22;42455;51.660;5.824;2023-02-18T03:22:56;13.2;98.5
45383;DHT22;42455;51.660;5.824;2023-02-18T03:28:05;13.2;98.5
45383;DHT22;42455;51.660;5.824;2023-02-18T03:33:10;13.2;98.5
45383;DHT22;42455;51.660;5.824;2023-02-18T03:38:28;13.2;98.5
45383;DHT22;42455;51.660;5.824;2023-02-18T03:43:19;13.2;98.5
45383;DHT22;42455;51.660;5.824;2023-02-18T03:48:25;13.1;98.5
45383;DHT22;42455;51.660;5.824;2023-02-18T03:53:31;13.1;98.5
45383;DHT22;42455;51.660;5.824;2023-02-18T03:58:37;13.1;98.5
45383;DHT22;42455;51.660;5.824;2023-02-18T04:03:43;13.1;98.5
45383;DHT22;42455;51.660;5.824;2023-02-18T04:08:50;13.1;98.5
45383;DHT22;42455;51.660;5.824;2023-02-18T04:13:56;13.1;98.5
45383;DHT22;42455;51.660;5.824;2023-02-18T04:19:02;13.1;98.5
45383;DHT22;42455;51.660;5.824;2023-02-18T04:24:08;13.0;98.5
45383;DHT22;42455;51.660;5.824;2023-02-18T04:29:14;13.0;98.5
45383;DHT22;42455;51.660;5.824;2023-02-18T04:34:21;13.0;98.5
45383;DHT22;42455;51.660;5.824;2023-02-18T04:39:27;13.0;98.5
45383;DHT22;42455;51.660;5.824;2023-02-18T04:44:33;13.0;98.5
45383;DHT22;42455;51.660;5.824;2023-02-18T04:49:39;13.0;98.5
45383;DHT22;42455;51.660;5.824;2023-02-18T04:54:46;13.0;98.5
45383;DHT22;42455;51.660;5.824;2023-02-18T04:59:52;13.0;98.5
45383;DHT22;42455;51.660;5.824;2023-02-18T05:04:58;13.0;98.5
45383;DHT22;42455;51.660;5.824;2023-02-18T05:10:03;13.0;98.5
45383;DHT22;42455;51.660;5.824;2023-02-18T05:15:09;13.0;98.5
45383;DHT22;42455;51.660;5.824;2023-02-18T05:20:16;12.9;98.5
45383;DHT22;42455;51.660;5.824;2023-02-18T05:25:22;12.9;98.5
45383;DHT22;42455;51.660;5.824;2023-02-18T05:30:28;12.9;98.5
45383;DHT22;42455;51.660;5.824;2023-02-18T05:35:34;12.9;98.5
45383;DHT22;42455;51.660;5.824;2023-02-18T05:40:40;12.9;98.5
45383;DHT22;42455;51.660;5.824;2023-02-18T05:45:47;12.9;98.5
45383;DHT22;42455;51.660;5.824;2023-02-18T05:50:53;12.9;98.5
45383;DHT22;42455;51.660;5.824;2023-02-18T05:55:59;12.9;98.5
45383;DHT22;42455;51.660;5.824;2023-02-18T06:01:05;12.9;98.5
45383;DHT22;42455;51.660;5.824;2023-02-18T06:06:11;12.9;98.5
45383;DHT22;42455;51.660;5.824;2023-02-18T06:11:18;12.9;98.5
45383;DHT22;42455;51.660;5.824;2023-02-18T06:16:24;12.8;98.5
45383;DHT22;42455;51.660;5.824;2023-02-18T06:21:30;12.8;98.5
45383;DHT22;42455;51.660;5.824;2023-02-18T06:26:36;12.8;98.5
45383;DHT22;42455;51.660;5.824;2023-02-18T06:31:43;12.8;98.5
45383;DHT22;42455;51.660;5.824;2023-02-18T06:36:49;12.8;98.5
45383;DHT22;42455;51.660;5.824;2023-02-18T06:41:55;12.8;98.5
45383;DHT22;42455;51.660;5.824;2023-02-18T06:47:01;12.8;98.5
45383;DHT22;42455;51.660;5.824;2023-02-18T06:52:07;12.8;98.5
45383;DHT22;42455;51.660;5.824;2023-02-18T06:57:13;12.8;98.5
45383;DHT22;42455;51.660;5.824;2023-02-18T07:02:19;12.8;98.5
45383;DHT22;42455;51.660;5.824;2023-02-18T07:07:24;12.8;98.5
45383;DHT22;42455;51.660;5.824;2023-02-18T07:12:30;12.8;98.5
45383;DHT22;42455;51.660;5.824;2023-02-18T07:17:37;12.8;98.5
45383;DHT22;42455;51.660;5.824;2023-02-18T07:22:43;12.8;98.5
45383;DHT22;42455;51.660;5.824;2023-02-18T07:27:49;12.8;98.5
45383;DHT22;42455;51.660;5.824;2023-02-18T07:32:55;12.8;98.5
45383;DHT22;42455;51.660;5.824;2023-02-18T07:38:01;12.7;98.5
45383;DHT22;42455;51.660;5.824;2023-02-18T07:43:07;12.7;98.5
45383;DHT22;42455;51.660;5.824;2023-02-18T07:48:14;12.7;98.5
45383;DHT22;42455;51.660;5.824;2023-02-18T07:53:20;12.7;98.5
45383;DHT22;42455;51.660;5.824;2023-02-18T07:58:29;12.6;98.5
45383;DHT22;42455;51.660;5.824;2023-02-18T08:03:32;12.6;98.5
45383;DHT22;42455;51.660;5.824;2023-02-18T08:08:38;12.5;98.5
45383;DHT22;42455;51.660;5.824;2023-02-18T08:13:45;12.5;98.5
45383;DHT22;42455;51.660;5.824;2023-02-18T08:18:52;12.5;98.5
45383;DHT22;42455;51.660;5.824;2023-02-18T08:23:58;12.5;98.5
45383;DHT22;42455;51.660;5.824;2023-02-18T08:29:03;12.5;98.5
45383;DHT22;42455;51.660;5.824;2023-02-18T08:34:10;12.5;98.5
45383;DHT22;42455;51.660;5.824;2023-02-18T08:44:22;12.6;98.5
45383;DHT22;42455;51.660;5.824;2023-02-18T08:49:28;12.6;98.5
45383;DHT22;42455;51.660;5.824;2023-02-18T08:54:34;12.6;98.5
45383;DHT22;42455;51.660;5.824;2023-02-18T08:59:40;12.6;98.5
45383;DHT22;42455;51.660;5.824;2023-02-18T09:04:46;12.6;98.5
45383;DHT22;42455;51.660;5.824;2023-02-18T09:09:51;12.6;98.5
45383;DHT22;42455;51.660;5.824;2023-02-18T09:14:58;12.6;98.5
45383;DHT22;42455;51.660;5.824;2023-02-18T09:20:04;12.7;98.5
45383;DHT22;42455;51.660;5.824;2023-02-18T09:25:10;12.7;98.5
45383;DHT22;42455;51.660;5.824;2023-02-18T09:30:16;12.7;98.5
45383;DHT22;42455;51.660;5.824;2023-02-18T09:35:22;12.7;98.5
45383;DHT22;42455;51.660;5.824;2023-02-18T09:40:41;12.6;98.5
45383;DHT22;42455;51.660;5.824;2023-02-18T09:45:34;12.6;98.0
45383;DHT22;42455;51.660;5.824;2023-02-18T09:50:51;12.5;98.0
45383;DHT22;42455;51.660;5.824;2023-02-18T09:55:48;12.5;98.0
45383;DHT22;42455;51.660;5.824;2023-02-18T10:01:14;12.5;98.0
45383;DHT22;42455;51.660;5.824;2023-02-18T10:06:06;12.5;98.0
45383;DHT22;42455;51.660;5.824;2023-02-18T10:11:11;12.5;98.0
45383;DHT22;42455;51.660;5.824;2023-02-18T10:16:18;12.5;98.0
45383;DHT22;42455;51.660;5.824;2023-02-18T10:21:23;12.5;98.0
45383;DHT22;42455;51.660;5.824;2023-02-18T10:26:24;12.5;98.0
45383;DHT22;42455;51.660;5.824;2023-02-18T10:31:34;12.5;98.0
45383;DHT22;42455;51.660;5.824;2023-02-18T10:36:48;12.6;98.0
45383;DHT22;42455;51.660;5.824;2023-02-18T10:42:19;12.6;97.5
45383;DHT22;42455;51.660;5.824;2023-02-18T10:48:42;12.7;97.5
45383;DHT22;42455;51.660;5.824;2023-02-18T10:51:57;12.7;97.5
45383;DHT22;42455;51.660;5.824;2023-02-18T10:57:00;12.7;97.5
45383;DHT22;42455;51.660;5.824;2023-02-18T11:02:14;12.7;97.5
45383;DHT22;42455;51.660;5.824;2023-02-18T11:07:15;12.7;97.5
45383;DHT22;42455;51.660;5.824;2023-02-18T11:12:26;12.7;97.5
45383;DHT22;42455;51.660;5.824;2023-02-18T11:17:30;12.7;97.5
45383;DHT22;42455;51.660;5.824;2023-02-18T11:22:32;12.7;97.5
45383;DHT22;42455;51.660;5.824;2023-02-18T11:27:41;12.7;97.5
45383;DHT22;42455;51.660;5.824;2023-02-18T11:32:44;12.7;98.0
45383;DHT22;42455;51.660;5.824;2023-02-18T11:37:50;12.6;98.0
45383;DHT22;42455;51.660;5.824;2023-02-18T11:43:01;12.6;98.0
45383;DHT22;42455;51.660;5.824;2023-02-18T11:48:06;12.6;98.5
45383;DHT22;42455;51.660;5.824;2023-02-18T11:53:31;12.6;98.5
45383;DHT22;42455;51.660;5.824;2023-02-18T11:58:14;12.6;98.5
45383;DHT22;42455;51.660;5.824;2023-02-18T12:03:43;12.6;98.5
45383;DHT22;42455;51.660;5.824;2023-02-18T12:08:27;12.7;98.5
45383;DHT22;42455;51.660;5.824;2023-02-18T12:13:57;12.7;98.5
45383;DHT22;42455;51.660;5.824;2023-02-18T12:20:14;12.7;98.5
45383;DHT22;42455;51.660;5.824;2023-02-18T12:25:46;12.8;98.5
45383;DHT22;42455;51.660;5.824;2023-02-18T12:31:50;12.9;98.5
45383;DHT22;42455;51.660;5.824;2023-02-18T12:38:21;12.9;98.5
45383;DHT22;42455;51.660;5.824;2023-02-18T12:44:00;13.0;98.5
45383;DHT22;42455;51.660;5.824;2023-02-18T12:50:22;13.1;98.5
45383;DHT22;42455;51.660;5.824;2023-02-18T12:56:46;13.1;98.5
45383;DHT22;42455;51.660;5.824;2023-02-18T13:02:52;13.2;98.5
45383;DHT22;42455;51.660;5.824;2023-02-18T13:08:57;13.3;98.5
45383;DHT22;42455;51.660;5.824;2023-02-18T13:13:57;13.3;98.5
45383;DHT22;42455;51.660;5.824;2023-02-18T13:16:39;13.4;98.5
45383;DHT22;42455;51.660;5.824;2023-02-18T13:18:57;13.5;98.5
45383;DHT22;42455;51.660;5.824;2023-02-18T13:21:17;13.6;98.5
45383;DHT22;42455;51.660;5.824;2023-02-18T13:24:58;13.7;98.5
45383;DHT22;42455;51.660;5.824;2023-02-18T13:30:27;13.8;98.5
45383;DHT22;42455;51.660;5.824;2023-02-18T13:35:36;13.9;98.5
45383;DHT22;42455;51.660;5.824;2023-02-18T13:40:26;13.9;98.5
45383;DHT22;42455;51.660;5.824;2023-02-18T13:45:33;14.0;98.5
45383;DHT22;42455;51.660;5.824;2023-02-18T13:50:42;14.1;98.0
45383;DHT22;42455;51.660;5.824;2023-02-18T13:55:41;14.1;98.0
45383;DHT22;42455;51.660;5.824;2023-02-18T14:00:55;14.1;97.5
45383;DHT22;42455;51.660;5.824;2023-02-18T14:05:47;14.2;97.5
45383;DHT22;42455;51.660;5.824;2023-02-18T14:11:38;14.2;97.5
45383;DHT22;42455;51.660;5.824;2023-02-18T14:16:00;14.2;97.0
45383;DHT22;42455;51.660;5.824;2023-02-18T14:21:18;14.2;97.0
45383;DHT22;42455;51.660;5.824;2023-02-18T14:26:27;14.3;97.0
45383;DHT22;42455;51.660;5.824;2023-02-18T14:31:36;14.3;97.0
45383;DHT22;42455;51.660;5.824;2023-02-18T14:37:08;14.3;96.5
45383;DHT22;42455;51.660;5.824;2023-02-18T14:42:23;14.3;96.5
45383;DHT22;42455;51.660;5.824;2023-02-18T14:48:52;14.4;96.5
45383;DHT22;42455;51.660;5.824;2023-02-18T14:51:43;14.4;96.5
45383;DHT22;42455;51.660;5.824;2023-02-18T14:56:56;14.5;96.5
45383;DHT22;42455;51.660;5.824;2023-02-18T15:01:55;14.6;96.0
45383;DHT22;42455;51.660;5.824;2023-02-18T15:07:04;14.6;96.0
45383;DHT22;42455;51.660;5.824;2023-02-18T15:12:08;14.7;96.0
45383;DHT22;42455;51.660;5.824;2023-02-18T15:17:15;14.8;96.0
45383;DHT22;42455;51.660;5.824;2023-02-18T15:22:24;14.9;95.5
45383;DHT22;42455;51.660;5.824;2023-02-18T15:27:27;14.9;95.0
45383;DHT22;42455;51.660;5.824;2023-02-18T15:32:31;14.9;95.0
45383;DHT22;42455;51.660;5.824;2023-02-18T15:37:37;14.9;94.5
45383;DHT22;42455;51.660;5.824;2023-02-18T15:42:49;14.9;94.5
45383;DHT22;42455;51.660;5.824;2023-02-18T15:47:52;14.9;94.5
45383;DHT22;42455;51.660;5.824;2023-02-18T15:52:58;14.9;94.0
45383;DHT22;42455;51.660;5.824;2023-02-18T15:58:03;14.9;94.0
45383;DHT22;42455;51.660;5.824;2023-02-18T16:03:25;14.8;94.0
45383;DHT22;42455;51.660;5.824;2023-02-18T16:08:16;14.8;94.0
45383;DHT22;42455;51.660;5.824;2023-02-18T16:13:22;14.8;94.0
45383;DHT22;42455;51.660;5.824;2023-02-18T16:18:30;14.7;94.0
45383;DHT22;42455;51.660;5.824;2023-02-18T16:23:41;14.7;94.0
45383;DHT22;42455;51.660;5.824;2023-02-18T16:28:41;14.6;94.0
45383;DHT22;42455;51.660;5.824;2023-02-18T16:33:46;14.6;94.0
45383;DHT22;42455;51.660;5.824;2023-02-18T16:38:52;14.5;94.0
45383;DHT22;42455;51.660;5.824;2023-02-18T16:43:58;14.5;94.0
45383;DHT22;42455;51.660;5.824;2023-02-18T16:49:04;14.4;94.0
45383;DHT22;42455;51.660;5.824;2023-02-18T16:54:09;14.4;94.5
45383;DHT22;42455;51.660;5.824;2023-02-18T16:59:16;14.4;94.5
45383;DHT22;42455;51.660;5.824;2023-02-18T17:04:22;14.4;94.5
45383;DHT22;42455;51.660;5.824;2023-02-18T17:09:28;14.3;94.5
45383;DHT22;42455;51.660;5.824;2023-02-18T17:14:34;14.3;94.5
45383;DHT22;42455;51.660;5.824;2023-02-18T17:19:41;14.3;94.5
45383;DHT22;42455;51.660;5.824;2023-02-18T17:24:47;14.3;94.5
45383;DHT22;42455;51.660;5.824;2023-02-18T17:29:53;14.3;94.5
45383;DHT22;42455;51.660;5.824;2023-02-18T17:34:59;14.3;94.5
45383;DHT22;42455;51.660;5.824;2023-02-18T17:40:08;14.3;95.0
45383;DHT22;42455;51.660;5.824;2023-02-18T17:45:16;14.2;95.0
45383;DHT22;42455;51.660;5.824;2023-02-18T17:50:17;14.2;95.0
45383;DHT22;42455;51.660;5.824;2023-02-18T17:55:24;14.1;95.0
45383;DHT22;42455;51.660;5.824;2023-02-18T18:00:32;14.1;95.0
45383;DHT22;42455;51.660;5.824;2023-02-18T18:05:37;14.0;95.5
45383;DHT22;42455;51.660;5.824;2023-02-18T18:10:50;13.9;95.5
45383;DHT22;42455;51.660;5.824;2023-02-18T18:15:49;13.9;96.0
45383;DHT22;42455;51.660;5.824;2023-02-18T18:20:56;13.8;96.0
45383;DHT22;42455;51.660;5.824;2023-02-18T18:26:00;13.7;96.5
45383;DHT22;42455;51.660;5.824;2023-02-18T18:31:14;13.7;96.5
45383;DHT22;42455;51.660;5.824;2023-02-18T18:36:13;13.6;96.5
45383;DHT22;42455;51.660;5.824;2023-02-18T18:41:20;13.6;97.0
45383;DHT22;42455;51.660;5.824;2023-02-18T18:46:24;13.5;97.0
45383;DHT22;42455;51.660;5.824;2023-02-18T18:51:30;13.5;97.0
45383;DHT22;42455;51.660;5.824;2023-02-18T18:56:35;13.4;97.5
45383;DHT22;42455;51.660;5.824;2023-02-18T19:01:42;13.4;97.5
45383;DHT22;42455;51.660;5.824;2023-02-18T19:06:48;13.4;97.5
45383;DHT22;42455;51.660;5.824;2023-02-18T19:11:54;13.3;97.5
45383;DHT22;42455;51.660;5.824;2023-02-18T19:17:02;13.3;98.0
45383;DHT22;42455;51.660;5.824;2023-02-18T19:22:07;13.3;98.0
45383;DHT22;42455;51.660;5.824;2023-02-18T19:27:13;13.3;98.0
45383;DHT22;42455;51.660;5.824;2023-02-18T19:32:19;13.2;98.0
45383;DHT22;42455;51.660;5.824;2023-02-18T19:37:25;13.2;98.5
45383;DHT22;42455;51.660;5.824;2023-02-18T19:42:32;13.2;98.5
45383;DHT22;42455;51.660;5.824;2023-02-18T19:47:38;13.2;98.5
45383;DHT22;42455;51.660;5.824;2023-02-18T19:52:44;13.2;98.5
45383;DHT22;42455;51.660;5.824;2023-02-18T19:57:50;13.2;98.5
45383;DHT22;42455;51.660;5.824;2023-02-18T20:02:56;13.2;98.5
45383;DHT22;42455;51.660;5.824;2023-02-18T20:08:02;13.2;98.5
45383;DHT22;42455;51.660;5.824;2023-02-18T20:13:09;13.2;98.5
45383;DHT22;42455;51.660;5.824;2023-02-18T20:18:15;13.2;98.5
45383;DHT22;42455;51.660;5.824;2023-02-18T20:23:21;13.2;98.5
45383;DHT22;42455;51.660;5.824;2023-02-18T20:28:27;13.2;98.5
45383;DHT22;42455;51.660;5.824;2023-02-18T20:33:34;13.2;98.5
45383;DHT22;42455;51.660;5.824;2023-02-18T20:38:39;13.2;98.5
45383;DHT22;42455;51.660;5.824;2023-02-18T20:43:46;13.2;98.5
45383;DHT22;42455;51.660;5.824;2023-02-18T20:48:51;13.2;98.5
45383;DHT22;42455;51.660;5.824;2023-02-18T20:53:57;13.2;98.5
45383;DHT22;42455;51.660;5.824;2023-02-18T20:59:04;13.2;98.5
45383;DHT22;42455;51.660;5.824;2023-02-18T21:04:12;13.1;98.5
45383;DHT22;42455;51.660;5.824;2023-02-18T21:09:16;13.1;98.5
45383;DHT22;42455;51.660;5.824;2023-02-18T21:14:22;13.1;98.5
45383;DHT22;42455;51.660;5.824;2023-02-18T21:19:28;13.1;98.5
45383;DHT22;42455;51.660;5.824;2023-02-18T21:24:35;13.1;98.5
45383;DHT22;42455;51.660;5.824;2023-02-18T21:29:41;13.1;98.5
45383;DHT22;42455;51.660;5.824;2023-02-18T21:34:47;13.1;98.5
45383;DHT22;42455;51.660;5.824;2023-02-18T21:39:53;13.1;98.5
45383;DHT22;42455;51.660;5.824;2023-02-18T21:44:59;13.1;98.5
45383;DHT22;42455;51.660;5.824;2023-02-18T21:50:06;13.1;98.5
45383;DHT22;42455;51.660;5.824;2023-02-18T21:55:12;13.1;98.5
45383;DHT22;42455;51.660;5.824;2023-02-18T22:00:18;13.1;98.5
45383;DHT22;42455;51.660;5.824;2023-02-18T22:05:24;13.1;98.5
45383;DHT22;42455;51.660;5.824;2023-02-18T22:10:30;13.1;98.5
45383;DHT22;42455;51.660;5.824;2023-02-18T22:15:37;13.1;98.5
45383;DHT22;42455;51.660;5.824;2023-02-18T22:20:43;13.1;98.5
45383;DHT22;42455;51.660;5.824;2023-02-18T22:25:48;13.1;98.5
45383;DHT22;42455;51.660;5.824;2023-02-18T22:30:54;13.1;98.5
45383;DHT22;42455;51.660;5.824;2023-02-18T22:36:00;13.1;98.5
45383;DHT22;42455;51.660;5.824;2023-02-18T22:41:08;13.1;98.5
45383;DHT22;42455;51.660;5.824;2023-02-18T22:46:13;13.1;98.5
45383;DHT22;42455;51.660;5.824;2023-02-18T22:51:19;13.1;98.5
45383;DHT22;42455;51.660;5.824;2023-02-18T22:56:25;13.1;98.5
45383;DHT22;42455;51.660;5.824;2023-02-18T23:01:32;13.1;98.5
45383;DHT22;42455;51.660;5.824;2023-02-18T23:06:37;13.1;98.5
45383;DHT22;42455;51.660;5.824;2023-02-18T23:11:42;13.1;98.5
45383;DHT22;42455;51.660;5.824;2023-02-18T23:16:49;13.1;98.5
45383;DHT22;42455;51.660;5.824;2023-02-18T23:21:54;13.1;98.5
45383;DHT22;42455;51.660;5.824;2023-02-18T23:27:01;13.1;98.5
45383;DHT22;42455;51.660;5.824;2023-02-18T23:32:08;13.1;98.5
45383;DHT22;42455;51.660;5.824;2023-02-18T23:37:13;13.1;98.5
45383;DHT22;42455;51.660;5.824;2023-02-18T23:42:19;13.1;98.5
45383;DHT22;42455;51.660;5.824;2023-02-18T23:47:25;13.1;98.5
45383;DHT22;42455;51.660;5.824;2023-02-18T23:52:32;13.1;98.5
45383;DHT22;42455;51.660;5.824;2023-02-18T23:57:38;13.0;98.5
